• Join FlightAware (Why Join?)
  • Login
  • US Flag 
12:10AM EST


 

Airport Tracker/Info


-or-


 

Live Flight TrackerFlight Track Log ✈ AAL1862 ✈ 30-Apr-2013 ✈ KDFW - KSTL

Flight Track Log - Related Links

Times and Time Zones

All times are in EDT time to prevent confusion due to time zone crossing. See the AAL1862 flight status page for this flight to view local times or setup timezone preferences in your user account.

Time Position Orientation Groundspeed Altitude Reporting Facility
EDT Latitude Longitude Course Direction KTS MPH feet Rate Location/Type
07:49AM 32.8833 -97.0333 357° North 147 169 1,900  Level Dallas / Fort Worth TRACON
07:51AM 32.8583 -96.8000 North  Level FlightAware Approximate
07:51AM 32.8000 -97.0000 161° South 241 277 6,400  Level Dallas / Fort Worth TRACON
07:52AM 32.9794 -96.8000 North  Level FlightAware Approximate
07:52AM 32.7614 -96.8847 112° Southeast 221 254 10,200  Level Fort Worth Center
07:53AM 33.1004 -96.8024 357° North  Level FlightAware Approximate
07:53AM 32.8300 -96.8150 40° Northeast 265 305 12,800  Level Fort Worth Center
07:54AM 33.2213 -96.8110 357° North  Level FlightAware Approximate
07:54AM 32.9239 -96.8069 North 313 360 14,500  Level Fort Worth Center
07:55AM 33.0469 -96.8136 357° North 370 426 17,600 2,800 Climbing Fort Worth Center
07:56AM 33.1533 -96.8156 359° North 411 473 20,100 2,500 Climbing Fort Worth Center
07:57AM 33.2892 -96.8194 359° North 432 497 22,600 2,200 Climbing Fort Worth Center
07:58AM 33.4019 -96.8189 360° North 445 512 24,500 2,150 Climbing Fort Worth Center
07:59AM 33.5078 -96.7133 40° Northeast 419 482 26,900 2,350 Climbing Fort Worth Center
08:00AM 33.5969 -96.6281 39° Northeast 443 510 29,200 2,000 Climbing Fort Worth Center
08:01AM 33.7028 -96.5444 33° Northeast 454 522 30,900 1,800 Climbing Fort Worth Center
08:02AM 33.8150 -96.4486 35° Northeast 454 522 32,800 1,600 Climbing Fort Worth Center
08:03AM 33.9144 -96.3697 33° Northeast 438 504 34,100 1,150 Climbing Fort Worth Center
08:04AM 34.0181 -96.2833 35° Northeast 443 510 35,100 1,050 Climbing Fort Worth Center
08:05AM 34.1217 -96.1942 35° Northeast 448 516 36,200 950 Climbing Fort Worth Center
08:06AM 34.2272 -96.1097 33° Northeast 448 516 37,000 400 Climbing Fort Worth Center
08:07AM 34.3283 -96.0253 35° Northeast 448 516 37,000  Level Fort Worth Center
08:08AM 34.4319 -95.9406 34° Northeast 448 516 37,000  Level Fort Worth Center
08:09AM 34.5331 -95.8556 35° Northeast 448 516 37,000  Level Fort Worth Center
08:10AM 34.6342 -95.7706 35° Northeast 448 516 37,000  Level Fort Worth Center
08:11AM 34.7394 -95.6825 34° Northeast 448 516 37,000  Level Fort Worth Center
08:12AM 34.8425 -95.5944 35° Northeast 448 516 37,000  Level Fort Worth Center
08:13AM 34.9475 -95.5036 35° Northeast 448 516 37,000  Level Fort Worth Center
08:14AM 35.0483 -95.4150 36° Northeast 448 516 37,000  Level Fort Worth Center
08:15AM 35.1511 -95.3289 34° Northeast 443 510 37,000  Level Fort Worth Center
08:16AM 35.2453 -95.2486 35° Northeast 443 510 37,000  Level Memphis Center
08:17AM 35.3447 -95.1578 37° Northeast 458 527 37,000  Level Memphis Center
08:18AM 35.4481 -95.0719 34° Northeast 458 527 37,000  Level Memphis Center
08:19AM 35.5472 -94.9831 36° Northeast 452 520 37,000  Level Memphis Center
08:20AM 35.6489 -94.8892 37° Northeast 447 514 37,000  Level Memphis Center
08:21AM 35.7522 -94.8003 35° Northeast 447 514 37,000  Level Memphis Center
08:22AM 35.8514 -94.7083 37° Northeast 447 514 37,000  Level Memphis Center
08:23AM 35.9544 -94.6189 35° Northeast 447 514 37,000  Level Memphis Center
08:24AM 36.0556 -94.5292 36° Northeast 447 514 37,000  Level Memphis Center
08:27AM 36.2764 -94.3278 36° Northeast 444 511 37,000  Level Kansas City Center
08:28AM 36.3756 -94.2372 36° Northeast 444 511 37,000  Level Kansas City Center
08:29AM 36.4942 -94.1303 36° Northeast 441 507 37,000  Level Kansas City Center
08:30AM 36.5928 -94.0408 36° Northeast 439 505 37,000  Level Kansas City Center
08:31AM 36.6911 -93.9494 37° Northeast 440 506 37,000  Level Kansas City Center
08:32AM 36.7889 -93.8603 36° Northeast 437 503 37,000  Level Kansas City Center
08:33AM 36.8939 -93.7647 36° Northeast 438 504 37,000  Level Kansas City Center
08:34AM 36.9903 -93.6731 37° Northeast 436 502 37,000  Level Kansas City Center
08:35AM 37.0867 -93.5817 37° Northeast 434 499 37,000  Level Kansas City Center
08:36AM 37.1850 -93.4933 36° Northeast 433 498 37,000  Level Kansas City Center
08:37AM 37.2803 -93.4050 36° Northeast 428 493 37,000  Level Kansas City Center
08:38AM 37.3769 -93.3142 37° Northeast 429 494 37,000  Level Kansas City Center
08:39AM 37.4617 -93.2083 45° Northeast 428 493 37,000  Level Kansas City Center
08:40AM 37.5503 -93.1056 43° Northeast 430 495 37,000 -146 Level Kansas City Center
08:41AM 37.6392 -93.0050 42° Northeast 428 493 36,700 -726 Descending Kansas City Center
08:42AM 37.7422 -92.8800 44° Northeast 426 490 35,500 -1,073 Descending Kansas City Center
08:43AM 37.8283 -92.7789 43° Northeast 420 483 34,500 -1,073 Descending Kansas City Center
08:44AM 37.9108 -92.6817 43° Northeast 425 489 33,300 -2,098 Descending Kansas City Center
08:45AM 37.9992 -92.5761 43° Northeast 435 501 30,200 -2,927 Descending Kansas City Center
08:46AM 38.0911 -92.4675 43° Northeast 447 514 27,300 -3,242 Descending Kansas City Center
08:47AM 38.1972 -92.3417 43° Northeast 458 527 23,500 -2,585 Descending Kansas City Center
08:48AM 38.2664 -92.2006 58° Northeast 467 537 22,000 -1,220 Descending Kansas City Center
08:49AM 38.3264 -92.0544 62° Northeast 464 534 21,000 -968 Descending Kansas City Center
08:50AM 38.3883 -91.9117 61° Northeast 460 529 20,000 -1,220 Descending Kansas City Center
08:51AM 38.4489 -91.7700 61° Northeast 454 522 18,500 -2,098 Descending Kansas City Center
08:52AM 38.5072 -91.6378 61° Northeast 434 499 15,700 -2,878 Descending Kansas City Center
08:53AM 38.5608 -91.5117 61° Northeast 410 472 12,600 -2,293 Descending Kansas City Center
08:54AM 38.6239 -91.3631 61° Northeast 397 457 11,000 -774 Descending Kansas City Center
08:55AM 38.6683 -91.2625 60° Northeast 395 455 11,000 -293 Level Kansas City Center
08:56AM 38.6931 -91.1111 78° East 357 411 10,400 -732 Descending Kansas City Center
08:57AM 38.6936 -91.0003 90° East 329 379 9,500 -1,220 Descending Kansas City Center
08:58AM 38.7222 -90.9081 68° East 303 349 7,900 -1,707 Descending Kansas City Center
08:59AM 38.7575 -90.8133 64° Northeast 296 341 6,000 -1,694 Descending Kansas City Center
09:00AM 38.7928 -90.7194 64° Northeast 293 337 4,400 -1,548 Descending Kansas City Center